Horseshoe Lake, Arkansas
Current Conditions -  °F | °C
As of 8:53 PM on Sunday 28 Dec 2014 (Local Time) from KAWM Reporting Station
Light Rain Light Rain  
Wind Chill: 32°   Ceiling: 6000
Heat Index: 37°   Visibility: 10mi
Dew Point: 35°   Wind: 7mph
Humidity: 93%   Direction: 10°N
Pressure: 30.18"   Gusts: NA
Location:  34.9503°N, 90.5078°W
Report Text: KAWM 290253Z AUTO 01006KT 10SM -RA SCT012 OVC060 03/02 A3018 RMK AO2 RAB00 SLP221 P0000 60000 T00280017 58001 $
Loading
Personal Weather Stations






























Interactive Weather Map New forecast layout! Learn more

10-Day Weather Forecast

Advertisements
Track Severe Weather on mobile